Impacts TAF Board
For situational awareness. Not to be used for flight planning purposes.
IDs:

KTPA - Tampa Intl Arpt, FL, US

Issued at 1303 UTC 14 Dec 2019
Updated at 1332 UTC 14 Dec 2019
Potential Impact None Slight Moderate High
Time1253Z 14/14Z 14/15Z 14/16Z 14/17Z 14/18Z 14/19Z 14/20Z 14/21Z 14/22Z 14/23Z 15/00Z 15/01Z 15/02Z>>
Type OBS PRVL PRVL PRVL PRVL PRVL PRVL PRVL PRVL PRVL PRVL PRVL PRVL PRVL
VIS 10 >6 >6 >6 >6 >6 >6 >6 >6 >6 >6 >6 >6 >6
CIG -- 50 50 50 50 50 50 50 50 50 50 -- -- --
Cover SCT BKN BKN BKN BKN BKN BKN BKN BKN BKN BKN FEW FEW FEW
FltCat VFR VFR VFR VFR VFR VFR VFR VFR VFR VFR VFR VFR VFR VFR
WX -- -- -- -- -- -- -- -- -- -- -- -- -- --
WDir 290 300 300 300 300 300 300 300 300 300 300 310 310 310
WSpd 10 11 11 11 11 11 11 11 11 11 11 4 4 4
WGst -- -- -- -- -- -- -- -- -- -- -- -- -- --
Raw TAF
KTPA 141303Z 1413/1518 30011KT P6SM SCT020 BKN050
  FM150000 31004KT P6SM FEW250
  FM150600 VRB03KT P6SM SKC


Raw METAR
KTPA 141253Z 29010KT 10SM FEW016 FEW035 SCT140 SCT250 18/17 A2980 RMK AO2 WSHFT 1238 RAE17 SLP089 P0000 T01830167 $
KTPA 141229Z 10SM FEW011 SCT026 SCT090 BKN250 19/18 A2980 RMK AO2 RAE17 P0000 T01890178 $
KTPA 141153Z 29015KT 8SM -RA BKN011 BKN034 OVC050 20/19 A2979 RMK AO2 WSHFT 1104 LTG DSNT E RAE26B37 TSE27 SLP089 CB DSNT NE-SW AND W P0018 60022 70022 T02000189 10222 20200 53009 $
KTPA 141129Z 32010KT 9SM FEW021 BKN044 OVC065 21/19 A2977 RMK AO2 WSHFT 1104 RAE26 TSE27 OCNL LTGIC DSNT NE-SW CB DSNT NE-SW P0018 T02060189 $
KTPA 141124Z 28013G26KT 8SM -TSRA FEW021CB BKN044 OVC065 21/19 A2977 RMK AO2 WSHFT 1104 OCNL LTGIC NE-SW TS NE-SW MOV E CB DSNT NE AND SW P0018 T02060189 $
KTPA 141108Z 23014G28KT 3SM TSRA BR FEW021CB BKN044 OVC065 21/19 A2976 RMK AO2 LTG DSNT SW OCNL LTGIC SW-NW AND DSNT N-NE TS SW-NW MOV E AND DSNT N-NE P0011 T02060194 $
KTPA 141100Z 23014G28KT 1 3/4SM R01L/4500VP6000FT TSRA BR FEW021CB BKN044 OVC065 21/19 A2975 RMK AO2 LTG DSNT N AND SW OCNL LTGIC SW-NW AND DSNT N-NE TS SW-NW MOV E AND DSNT N-NE P0007 T02060189 $
KTPA 141058Z 23014G28KT 2SM R01L/4500VP6000FT TSRA BR FEW021CB BKN044 OVC065 21/19 A2974 RMK AO2 VIS 1V5 LTG DSNT N AND SW OCNL LTGIC SW-NW AND DSNT N-NE TS SW-NW MOV E AND DSNT N-NE P0003 T02110194 $
KTPA 141053Z 21014KT 4SM -TSRA BR FEW023CB BKN042 OVC080 22/21 A2975 RMK AO2 LTG DSNT N AND SW RAB21 TSB49 SLP072 OCNL LTGIC SW-W TS SW-W MOV E P0004 T02170206 $
KTPA 141049Z 20013KT 5SM -TSRA BR FEW023CB BKN042 OVC080 22/21 A2975 RMK AO2 LTG DSNT N AND SW RAB21 TSB49 OCNL LTGIC SW-W TS SW-W MOV E P0002 $

METAR Board
Radar Display
Forecast Discussion
For situational awareness. Not to be used for flight planning purposes.